Terminal Aerodrome Forecast
Issued by NWS

Home | Current Version | Previous Version | Text Only | Print | Product List | Glossary On
Versions: 1 2 3 4 5 6 7 8 9 10 11 12 13 14 15 16 17 18 19 20 21 22
228
FTUS41 KGYX 091730
TAFRKD
TAF
KRKD 091730Z 0918/1018 29017G28KT P6SM BKN040
     FM100100 29010G18KT P6SM FEW250=

USA.gov is the U.S. government's official web portal to all federal, state and local government web resources and services.